Time;durP1;ratioP1;P1;durP2;ratioP2;P2;SDS_P1;SDS_P2;PMS_P1;PMS_P2;Temp;Humidity;BMP_temperature;BMP_pressure;BME280_temperature;BME280_humidity;BME280_pressure;Samples;Min_cycle;Max_cycle;Signal;HPM_P1;HPM_P2
2021/08/25 00:02:25;;;;;;;11.93;7.35;;;13.40;91.60;;;;;;4934105;28;20509;-82
2021/08/25 00:04:51;;;;;;;13.65;8.43;;;13.50;91.70;;;;;;4952207;28;20034;-83
2021/08/25 00:07:16;;;;;;;12.25;7.80;;;13.40;91.70;;;;;;4949066;28;20027;-83
2021/08/25 00:09:42;;;;;;;11.75;7.85;;;13.40;91.80;;;;;;4937404;29;20103;-83
2021/08/25 00:12:10;;;;;;;10.52;6.97;;;13.40;91.60;;;;;;4962090;28;20069;-82
2021/08/25 00:14:38;;;;;;;12.43;7.97;;;13.40;91.60;;;;;;4935735;28;20031;-83
2021/08/25 00:17:04;;;;;;;12.27;7.10;;;13.40;91.40;;;;;;4934893;28;20034;-83
2021/08/25 00:19:30;;;;;;;11.68;7.60;;;13.40;91.70;;;;;;4951795;28;20389;-84
2021/08/25 00:21:56;;;;;;;11.35;7.75;;;13.30;91.90;;;;;;4944999;28;20059;-83
2021/08/25 00:24:22;;;;;;;11.00;7.55;;;13.30;91.90;;;;;;4931723;28;20035;-84
2021/08/25 00:26:47;;;;;;;12.98;8.32;;;13.30;92.00;;;;;;4932187;28;20032;-84
2021/08/25 00:29:14;;;;;;;11.52;7.20;;;13.30;92.10;;;;;;4950816;28;20093;-83
2021/08/25 00:31:40;;;;;;;10.88;7.28;;;13.30;92.20;;;;;;4929217;28;20035;-84
2021/08/25 00:34:06;;;;;;;13.88;8.55;;;13.30;92.30;;;;;;4932593;29;20031;-83
2021/08/25 00:36:32;;;;;;;11.70;8.18;;;13.30;92.20;;;;;;4938547;28;20055;-84
2021/08/25 00:38:57;;;;;;;15.38;9.02;;;13.30;92.10;;;;;;4939419;28;20058;-83
2021/08/25 00:41:23;;;;;;;12.75;8.45;;;13.30;92.30;;;;;;4952584;28;20035;-83
2021/08/25 00:43:49;;;;;;;16.67;10.02;;;13.30;92.30;;;;;;4954611;28;20042;-84
2021/08/25 00:46:15;;;;;;;14.18;8.68;;;13.20;92.50;;;;;;4951694;28;20094;-84
2021/08/25 00:48:42;;;;;;;14.57;8.68;;;13.20;92.30;;;;;;4935108;29;20039;-83
2021/08/25 00:51:08;;;;;;;14.18;9.35;;;13.30;92.30;;;;;;4952724;28;20483;-85
2021/08/25 00:53:34;;;;;;;13.23;8.95;;;13.30;92.30;;;;;;4938217;28;20038;-83
2021/08/25 00:56:00;;;;;;;14.20;8.88;;;13.30;92.60;;;;;;4934313;29;20078;-83
2021/08/25 00:58:26;;;;;;;14.25;8.70;;;13.20;92.40;;;;;;4935355;29;20039;-84
2021/08/25 01:01:06;;;;;;;13.43;8.85;;;13.30;92.70;;;;;;4958122;28;20045;-83
2021/08/25 01:03:57;;;;;;;13.93;8.25;;;13.30;92.40;;;;;;4949921;28;20407;-84
2021/08/25 01:06:24;;;;;;;16.70;9.73;;;13.30;92.10;;;;;;4934544;28;20047;-83
2021/08/25 01:08:55;;;;;;;13.82;8.68;;;13.30;92.20;;;;;;4937933;28;20429;-84
2021/08/25 01:11:21;;;;;;;14.23;8.80;;;13.30;92.30;;;;;;4935915;28;20035;-84
2021/08/25 01:13:47;;;;;;;14.25;8.75;;;13.20;92.10;;;;;;4952755;28;20491;-84
2021/08/25 01:16:14;;;;;;;13.27;9.35;;;13.30;92.10;;;;;;4935155;29;20130;-84
2021/08/25 01:18:40;;;;;;;14.25;8.57;;;13.20;92.00;;;;;;4940953;29;20031;-83
2021/08/25 01:21:07;;;;;;;11.98;8.52;;;13.30;92.10;;;;;;4932622;28;20055;-84
2021/08/25 01:23:40;;;;;;;12.55;8.35;;;13.20;91.90;;;;;;4941434;28;20031;-83
2021/08/25 01:26:05;;;;;;;13.18;7.90;;;13.30;91.80;;;;;;4954144;28;20313;-83
2021/08/25 01:28:36;;;;;;;13.90;9.05;;;13.30;91.80;;;;;;4951695;28;20178;-84
2021/08/25 01:31:02;;;;;;;11.73;8.20;;;13.20;92.00;;;;;;4937544;28;20034;-84
2021/08/25 01:33:29;;;;;;;12.70;8.18;;;13.20;91.80;;;;;;4953717;28;20031;-84
2021/08/25 01:35:56;;;;;;;13.25;7.45;;;13.20;91.80;;;;;;4951457;28;20395;-83
2021/08/25 01:38:44;;;;;;;13.23;8.20;;;13.20;91.70;;;;;;4947044;28;20707;-83
2021/08/25 01:41:09;;;;;;;;;;;13.10;91.60;;;;;;4949792;28;20031;-83
2021/08/25 01:43:35;;;;;;;12.82;8.23;;;13.10;91.60;;;;;;4965532;28;20259;-83
2021/08/25 01:46:03;;;;;;;14.77;8.77;;;13.00;91.60;;;;;;4950339;28;20099;-85
2021/08/25 01:48:32;;;;;;;12.80;8.30;;;13.00;91.60;;;;;;4938163;29;20035;-84
2021/08/25 01:50:58;;;;;;;15.30;8.65;;;13.00;91.50;;;;;;4936646;28;20166;-84
2021/08/25 01:53:24;;;;;;;11.88;8.18;;;12.90;91.60;;;;;;4956388;28;20091;-84
2021/08/25 01:55:50;;;;;;;14.68;8.57;;;12.90;91.70;;;;;;4959944;28;20031;-84
2021/08/25 01:58:15;;;;;;;11.88;8.43;;;12.90;91.60;;;;;;4954378;28;20042;-85
2021/08/25 02:00:41;;;;;;;14.20;8.60;;;12.80;91.70;;;;;;4951964;28;20194;-84
2021/08/25 02:03:08;;;;;;;13.60;8.80;;;12.80;91.70;;;;;;4949869;28;20114;-83
2021/08/25 02:05:34;;;;;;;16.08;8.07;;;12.80;91.60;;;;;;4958003;28;20027;-84
2021/08/25 02:08:00;;;;;;;13.88;8.57;;;12.80;91.50;;;;;;4955160;28;20543;-84
2021/08/25 02:10:25;;;;;;;11.57;7.63;;;12.70;91.40;;;;;;4934787;28;20507;-83
2021/08/25 02:12:51;;;;;;;12.38;8.07;;;12.60;91.50;;;;;;4950509;28;20126;-83
2021/08/25 02:15:17;;;;;;;12.48;8.00;;;12.60;91.60;;;;;;4939760;29;20819;-83
2021/08/25 02:17:42;;;;;;;11.88;8.07;;;12.60;91.60;;;;;;4964865;28;20058;-83
2021/08/25 02:20:09;;;;;;;12.82;8.13;;;12.60;91.60;;;;;;4933969;29;20051;-83
2021/08/25 02:22:35;;;;;;;14.57;8.32;;;12.50;91.60;;;;;;4943319;28;20103;-83
2021/08/25 02:25:01;;;;;;;14.00;8.68;;;12.50;91.70;;;;;;4931053;29;20020;-83
2021/08/25 02:27:27;;;;;;;11.57;7.97;;;12.50;91.70;;;;;;4934770;29;20024;-84
2021/08/25 02:29:56;;;;;;;12.07;8.05;;;12.50;91.50;;;;;;4936812;29;20040;-84
2021/08/25 02:32:24;;;;;;;13.68;8.73;;;12.40;91.50;;;;;;4932936;28;20043;-84
2021/08/25 02:34:50;;;;;;;14.23;8.65;;;12.30;91.70;;;;;;4929657;29;20110;-83
2021/08/25 02:37:16;;;;;;;12.27;7.95;;;12.30;91.80;;;;;;4948028;28;20040;-84
2021/08/25 02:39:42;;;;;;;13.30;7.80;;;12.30;91.70;;;;;;4933357;29;20024;-84
2021/08/25 02:42:08;;;;;;;13.10;8.20;;;12.20;91.90;;;;;;4931999;29;20139;-84
2021/08/25 02:44:33;;;;;;;12.25;8.35;;;12.10;91.70;;;;;;4946118;28;20114;-84
2021/08/25 02:46:59;;;;;;;15.88;8.63;;;12.00;91.90;;;;;;4931449;29;20496;-84
2021/08/25 02:49:25;;;;;;;12.63;7.80;;;11.90;92.20;;;;;;4933026;29;20024;-84
2021/08/25 02:51:50;;;;;;;12.40;8.23;;;11.90;92.40;;;;;;4932807;29;20031;-84
2021/08/25 02:54:16;;;;;;;14.30;8.18;;;11.90;92.50;;;;;;4950870;28;20032;-84
2021/08/25 02:56:42;;;;;;;14.05;7.97;;;11.90;92.50;;;;;;4937549;29;20035;-84
2021/08/25 02:59:07;;;;;;;13.32;7.80;;;11.90;92.40;;;;;;4932822;29;20043;-83
2021/08/25 03:01:33;;;;;;;15.88;8.25;;;11.90;92.50;;;;;;4929916;28;20362;-83
2021/08/25 03:03:59;;;;;;;13.15;8.38;;;11.90;92.40;;;;;;4931886;29;20036;-84
2021/08/25 03:06:25;;;;;;;13.98;7.93;;;11.90;92.60;;;;;;4930014;29;20115;-84
2021/08/25 03:08:50;;;;;;;13.07;7.78;;;11.80;92.50;;;;;;4931603;29;20046;-83
2021/08/25 03:11:16;;;;;;;12.70;8.18;;;11.80;92.40;;;;;;4933668;29;20492;-83
2021/08/25 03:13:42;;;;;;;15.68;8.57;;;11.70;92.60;;;;;;4931795;29;20115;-85
2021/08/25 03:16:09;;;;;;;13.00;7.88;;;11.70;92.80;;;;;;4942761;28;20057;-84
2021/08/25 03:18:34;;;;;;;16.35;8.73;;;11.70;92.70;;;;;;4945709;29;20035;-84
2021/08/25 03:21:00;;;;;;;12.65;8.05;;;11.60;93.20;;;;;;4930427;29;20202;-85
2021/08/25 03:23:29;;;;;;;12.20;7.65;;;11.70;93.20;;;;;;4942577;28;20043;-84
2021/08/25 03:25:55;;;;;;;14.40;8.63;;;11.60;93.30;;;;;;4926837;29;20071;-84
2021/08/25 03:28:20;;;;;;;15.30;8.18;;;11.60;93.40;;;;;;4928598;29;20032;-85
2021/08/25 03:30:46;;;;;;;13.00;8.02;;;11.60;93.40;;;;;;4942362;28;20051;-84
2021/08/25 03:33:12;;;;;;;12.98;8.27;;;11.60;93.40;;;;;;4942537;28;20034;-84
2021/08/25 03:35:37;;;;;;;13.35;8.07;;;11.60;93.20;;;;;;4945255;28;20062;-84
2021/08/25 03:38:03;;;;;;;10.77;7.55;;;11.60;93.00;;;;;;4928813;29;20027;-84
2021/08/25 03:40:29;;;;;;;13.15;7.93;;;11.50;93.00;;;;;;4944757;28;20032;-84
2021/08/25 03:42:56;;;;;;;13.23;8.25;;;11.40;93.00;;;;;;4943045;28;20365;-84
2021/08/25 03:45:22;;;;;;;13.65;8.48;;;11.40;92.90;;;;;;4928662;29;20071;-84
2021/08/25 03:47:48;;;;;;;12.90;7.95;;;11.40;92.70;;;;;;4927419;29;20447;-84
2021/08/25 03:50:13;;;;;;;14.32;7.93;;;11.40;92.70;;;;;;4929414;29;20019;-84
2021/08/25 03:52:39;;;;;;;15.60;8.40;;;11.40;92.50;;;;;;4930512;29;20062;-84
2021/08/25 03:55:05;;;;;;;13.98;7.93;;;11.30;92.40;;;;;;4931760;29;20028;-84
2021/08/25 03:57:30;;;;;;;15.35;8.30;;;11.30;92.60;;;;;;4928829;29;20554;-84
2021/08/25 03:59:56;;;;;;;14.15;8.27;;;11.30;92.60;;;;;;4945105;28;20042;-84
2021/08/25 04:02:22;;;;;;;13.68;7.65;;;11.30;92.60;;;;;;4930858;28;20032;-85
2021/08/25 04:04:48;;;;;;;15.50;8.07;;;11.30;92.70;;;;;;4930431;29;20046;-84
2021/08/25 04:07:14;;;;;;;15.93;8.50;;;11.20;92.70;;;;;;4931811;29;20075;-84
2021/08/25 04:09:40;;;;;;;15.13;8.32;;;11.20;92.70;;;;;;4932428;29;20697;-84
2021/08/25 04:12:07;;;;;;;12.27;7.25;;;11.10;92.50;;;;;;4934277;29;20031;-84
2021/08/25 04:14:33;;;;;;;11.13;7.68;;;11.10;92.50;;;;;;4951302;28;20174;-84
2021/08/25 04:16:59;;;;;;;13.00;8.52;;;11.10;92.50;;;;;;4933024;29;20106;-84
2021/08/25 04:19:25;;;;;;;13.80;7.78;;;11.00;92.80;;;;;;4951318;28;20373;-85
2021/08/25 04:21:51;;;;;;;15.93;8.35;;;11.00;93.10;;;;;;4941089;28;20038;-84
2021/08/25 04:24:16;;;;;;;13.70;8.38;;;11.10;93.00;;;;;;4936699;28;20027;-84
2021/08/25 04:26:43;;;;;;;15.20;8.30;;;11.00;93.20;;;;;;4936781;29;20034;-84
2021/08/25 04:29:09;;;;;;;13.00;7.38;;;11.00;93.10;;;;;;4939219;28;20395;-84
2021/08/25 04:31:34;;;;;;;16.80;7.55;;;11.00;93.10;;;;;;4955618;28;20035;-84
2021/08/25 04:34:00;;;;;;;14.98;8.40;;;11.00;93.00;;;;;;4956187;28;20046;-84
2021/08/25 04:36:26;;;;;;;13.98;8.43;;;11.00;93.20;;;;;;4940265;28;20049;-85
2021/08/25 04:38:51;;;;;;;12.93;8.35;;;10.90;93.30;;;;;;4951369;28;20039;-84
2021/08/25 04:41:17;;;;;;;13.63;7.90;;;10.90;93.60;;;;;;4952741;28;20090;-84
2021/08/25 04:43:43;;;;;;;16.08;8.45;;;10.90;93.60;;;;;;4936044;29;20059;-82
2021/08/25 04:46:08;;;;;;;15.00;8.77;;;10.90;93.60;;;;;;4938435;28;20031;-83
2021/08/25 04:48:35;;;;;;;13.15;8.52;;;10.80;93.90;;;;;;4954582;29;20627;-83
2021/08/25 04:51:01;;;;;;;16.00;9.40;;;10.90;94.10;;;;;;4941523;29;20038;-83
2021/08/25 04:53:27;;;;;;;15.13;9.02;;;10.90;94.30;;;;;;4935958;28;20043;-83
2021/08/25 04:55:52;;;;;;;13.48;8.00;;;10.90;94.20;;;;;;4953607;28;20115;-83
2021/08/25 04:58:18;;;;;;;17.00;9.90;;;10.90;94.30;;;;;;4939274;29;20035;-83
2021/08/25 05:00:46;;;;;;;17.20;8.52;;;10.90;94.40;;;;;;4937860;28;20047;-83
2021/08/25 05:03:13;;;;;;;;;;;10.90;94.30;;;;;;4955010;28;20112;-83
2021/08/25 05:05:39;;;;;;;17.27;9.23;;;10.90;94.30;;;;;;4953892;28;19926;-84
2021/08/25 05:08:06;;;;;;;15.75;8.70;;;10.90;94.20;;;;;;4940649;28;20550;-83
2021/08/25 05:10:31;;;;;;;17.17;9.60;;;11.00;94.30;;;;;;4942442;28;20027;-83
2021/08/25 05:12:57;;;;;;;19.02;11.07;;;11.00;94.40;;;;;;4938430;29;20041;-84
2021/08/25 05:15:23;;;;;;;19.08;10.18;;;11.00;94.70;;;;;;4946676;28;20502;-84
2021/08/25 05:17:48;;;;;;;19.92;10.50;;;11.00;94.90;;;;;;4956951;28;20034;-84
2021/08/25 05:20:14;;;;;;;14.65;9.68;;;11.00;94.90;;;;;;4953268;28;20051;-83
2021/08/25 05:22:39;;;;;;;16.30;9.93;;;11.10;94.90;;;;;;4937796;28;20035;-84
2021/08/25 05:25:06;;;;;;;18.55;10.82;;;11.10;95.40;;;;;;4950587;28;20030;-84
2021/08/25 05:27:32;;;;;;;16.60;9.77;;;11.20;95.00;;;;;;4938339;28;20031;-84
2021/08/25 05:29:58;;;;;;;21.15;11.27;;;11.20;95.00;;;;;;4955198;28;20062;-84
2021/08/25 05:32:23;;;;;;;19.02;10.90;;;11.30;95.30;;;;;;4939424;28;20039;-83
2021/08/25 05:34:49;;;;;;;21.42;10.77;;;11.20;95.40;;;;;;4941883;28;20058;-83
2021/08/25 05:37:15;;;;;;;16.58;10.20;;;11.30;95.60;;;;;;4938215;29;20070;-83
2021/08/25 05:39:41;;;;;;;19.15;9.90;;;11.40;95.50;;;;;;4937590;28;20031;-82
2021/08/25 05:42:07;;;;;;;19.00;10.85;;;11.50;95.40;;;;;;4952689;28;20042;-83
2021/08/25 05:44:32;;;;;;;21.02;11.32;;;11.50;95.40;;;;;;4968373;28;20435;-83
2021/08/25 05:46:58;;;;;;;20.33;10.93;;;11.60;95.50;;;;;;4935143;29;20035;-83
2021/08/25 05:49:24;;;;;;;16.63;10.35;;;11.70;95.60;;;;;;4936474;28;20035;-83
2021/08/25 05:51:50;;;;;;;18.23;10.45;;;11.80;95.80;;;;;;4953500;28;20035;-83
2021/08/25 05:54:16;;;;;;;19.33;10.77;;;11.90;95.70;;;;;;4954460;28;20456;-83
2021/08/25 05:56:42;;;;;;;16.90;10.52;;;11.90;95.60;;;;;;4937583;29;20038;-83
2021/08/25 05:59:08;;;;;;;15.30;10.13;;;12.00;95.40;;;;;;4935445;29;20027;-83
2021/08/25 06:01:33;;;;;;;15.70;10.18;;;12.10;95.60;;;;;;4936926;28;20098;-84
2021/08/25 06:03:59;;;;;;;19.55;9.98;;;12.10;95.50;;;;;;4952601;28;20074;-84
2021/08/25 06:06:34;;;;;;;18.83;10.68;;;12.20;95.70;;;;;;4940516;29;20543;-84
2021/08/25 06:09:00;;;;;;;17.83;10.90;;;12.30;95.30;;;;;;4948937;28;20031;-85
2021/08/25 06:11:27;;;;;;;19.45;10.60;;;12.40;95.40;;;;;;4937913;28;20038;-83
2021/08/25 06:13:52;;;;;;;17.30;9.63;;;12.50;95.30;;;;;;4933917;29;20039;-83
2021/08/25 06:16:18;;;;;;;16.67;9.98;;;12.60;95.00;;;;;;4935984;29;20066;-84
2021/08/25 06:18:47;;;;;;;12.88;8.73;;;12.60;94.90;;;;;;4954668;28;20042;-85
2021/08/25 06:21:17;;;;;;;10.90;7.57;;;12.80;94.80;;;;;;4958884;28;20067;-84
2021/08/25 06:23:45;;;;;;;12.52;7.88;;;12.90;93.40;;;;;;4956724;28;20447;-84
2021/08/25 06:26:11;;;;;;;12.20;7.13;;;12.90;93.10;;;;;;4955418;28;20511;-84
2021/08/25 06:28:37;;;;;;;11.15;6.68;;;13.10;93.00;;;;;;4936858;28;20042;-84
2021/08/25 06:31:02;;;;;;;9.35;6.35;;;13.10;92.00;;;;;;4933415;28;20039;-85
2021/08/25 06:33:28;;;;;;;9.60;6.38;;;13.20;91.60;;;;;;4950756;28;20054;-84
2021/08/25 06:35:54;;;;;;;8.70;6.20;;;13.20;90.80;;;;;;4952574;28;20042;-82
2021/08/25 06:38:19;;;;;;;9.38;6.45;;;13.30;91.30;;;;;;4954133;28;20634;-84
2021/08/25 06:40:45;;;;;;;7.72;5.38;;;13.40;90.50;;;;;;4937485;29;20748;-84
2021/08/25 06:43:10;;;;;;;11.82;6.47;;;13.40;89.80;;;;;;4950127;28;20041;-83
2021/08/25 06:45:36;;;;;;;9.40;6.05;;;13.40;90.30;;;;;;4946174;28;20484;-83
2021/08/25 06:48:04;;;;;;;8.02;5.22;;;13.50;89.80;;;;;;4932957;29;20492;-83
2021/08/25 06:50:29;;;;;;;9.63;6.47;;;13.50;89.40;;;;;;4936573;28;20526;-83
2021/08/25 06:52:55;;;;;;;8.25;5.95;;;13.60;90.10;;;;;;4931987;28;20031;-83
2021/08/25 06:55:21;;;;;;;8.45;5.50;;;13.70;89.30;;;;;;4936290;28;20054;-83
2021/08/25 06:57:46;;;;;;;8.85;5.97;;;13.70;88.50;;;;;;4934467;28;20094;-83
2021/08/25 07:00:12;;;;;;;8.65;6.70;;;13.80;88.50;;;;;;4948490;28;20031;-84
2021/08/25 07:02:38;;;;;;;8.25;6.00;;;13.80;88.50;;;;;;4932409;29;20392;-83
2021/08/25 07:05:06;;;;;;;7.03;5.13;;;13.80;87.50;;;;;;4935101;28;20510;-84
2021/08/25 07:07:32;;;;;;;;;;;13.90;87.20;;;;;;4930172;28;20687;-83
2021/08/25 07:10:00;;;;;;;7.57;5.47;;;13.90;86.30;;;;;;4949744;28;19911;-84
2021/08/25 07:12:26;;;;;;;7.18;4.90;;;14.00;85.80;;;;;;4931492;28;21842;-84
2021/08/25 07:14:53;;;;;;;6.75;4.70;;;14.00;85.90;;;;;;4936228;28;20089;-83
2021/08/25 07:17:18;;;;;;;8.88;5.45;;;14.00;86.00;;;;;;4932727;28;20026;-84
2021/08/25 07:19:44;;;;;;;8.30;5.25;;;14.10;87.30;;;;;;4951790;28;20062;-84
2021/08/25 07:22:10;;;;;;;5.55;4.75;;;14.10;84.70;;;;;;4931649;29;20043;-84
2021/08/25 07:24:37;;;;;;;8.35;5.15;;;14.10;84.50;;;;;;4951743;28;20042;-84
2021/08/25 07:27:03;;;;;;;6.68;5.03;;;14.20;84.80;;;;;;4959456;28;20118;-84
2021/08/25 07:29:31;;;;;;;7.47;5.30;;;14.30;84.40;;;;;;4927192;28;20020;-84
2021/08/25 07:31:58;;;;;;;6.93;5.33;;;14.30;84.90;;;;;;4934057;28;20049;-84
2021/08/25 07:34:23;;;;;;;8.85;4.85;;;14.40;84.60;;;;;;4950583;28;20575;-84
2021/08/25 07:36:49;;;;;;;7.15;5.22;;;14.50;85.40;;;;;;4932187;29;20114;-84
2021/08/25 07:39:14;;;;;;;8.88;4.97;;;14.50;83.70;;;;;;4931208;28;20028;-84
2021/08/25 07:41:40;;;;;;;7.80;4.95;;;14.60;84.60;;;;;;4931648;28;20031;-84
2021/08/25 07:44:07;;;;;;;10.05;5.90;;;14.70;86.40;;;;;;4940452;28;20035;-84
2021/08/25 07:46:33;;;;;;;10.25;5.93;;;14.80;83.70;;;;;;4933452;28;21637;-84
2021/08/25 07:49:03;;;;;;;7.45;4.97;;;14.80;83.80;;;;;;4950237;28;20054;-84
2021/08/25 07:51:29;;;;;;;8.32;6.03;;;14.80;84.00;;;;;;4934937;29;20054;-84
2021/08/25 07:53:55;;;;;;;9.00;5.68;;;15.00;84.30;;;;;;4929939;29;20975;-84
2021/08/25 07:56:21;;;;;;;7.25;5.50;;;14.90;83.60;;;;;;4942812;28;20488;-84
2021/08/25 07:58:47;;;;;;;6.30;4.65;;;15.00;84.10;;;;;;4927715;29;20041;-84
2021/08/25 08:01:13;;;;;;;6.60;5.35;;;15.10;81.20;;;;;;4927778;28;20051;-84
2021/08/25 08:03:39;;;;;;;7.60;4.78;;;15.10;81.50;;;;;;4928042;28;20071;-84
2021/08/25 08:06:05;;;;;;;8.93;5.00;;;15.10;82.30;;;;;;4927785;28;20051;-84
2021/08/25 08:08:31;;;;;;;8.98;4.65;;;15.30;82.00;;;;;;4935944;29;20027;-85
2021/08/25 08:10:56;;;;;;;7.47;5.07;;;15.30;81.30;;;;;;4939368;28;20027;-84
2021/08/25 08:13:22;;;;;;;6.60;4.72;;;15.40;81.00;;;;;;4935556;29;20492;-85
2021/08/25 08:15:48;;;;;;;7.38;4.75;;;15.40;80.00;;;;;;4926767;29;20054;-84
2021/08/25 08:18:29;;;;;;;7.60;4.13;;;15.50;79.60;;;;;;4947785;29;20055;-84
2021/08/25 08:20:55;;;;;;;7.43;4.85;;;15.70;82.00;;;;;;4933685;29;20115;-84
2021/08/25 08:23:21;;;;;;;6.63;4.75;;;15.80;80.90;;;;;;4938380;29;20114;-84
2021/08/25 08:25:46;;;;;;;5.57;4.00;;;15.80;77.30;;;;;;4954252;28;20042;-84
2021/08/25 08:28:12;;;;;;;6.88;4.70;;;15.80;77.60;;;;;;4936808;29;20059;-84
2021/08/25 08:30:38;;;;;;;10.80;5.05;;;15.70;76.90;;;;;;4937332;28;20451;-84
2021/08/25 08:33:04;;;;;;;5.45;4.00;;;15.80;78.80;;;;;;4956600;28;20381;-83
2021/08/25 08:35:32;;;;;;;8.13;5.25;;;15.70;77.50;;;;;;4933670;28;20038;-83
2021/08/25 08:38:01;;;;;;;4.60;4.05;;;15.70;75.60;;;;;;4939041;28;20031;-84
2021/08/25 08:40:26;;;;;;;4.90;3.63;;;15.90;78.90;;;;;;4955782;28;20085;-84
2021/08/25 08:42:52;;;;;;;5.15;3.63;;;16.00;77.20;;;;;;4935393;29;20039;-84
2021/08/25 08:45:20;;;;;;;5.30;3.90;;;16.10;77.10;;;;;;4937685;28;20460;-84
2021/08/25 08:47:46;;;;;;;6.88;4.30;;;16.20;77.90;;;;;;4938876;29;20400;-84
2021/08/25 08:50:12;;;;;;;5.18;3.70;;;16.30;77.90;;;;;;4953062;28;20523;-84
2021/08/25 08:52:38;;;;;;;5.95;3.63;;;16.40;76.90;;;;;;4940596;29;20151;-84
2021/08/25 08:55:05;;;;;;;6.00;4.07;;;16.40;74.80;;;;;;4930467;28;20035;-84
2021/08/25 08:57:31;;;;;;;5.25;3.13;;;16.50;76.20;;;;;;4943043;29;20039;-84
2021/08/25 08:59:59;;;;;;;4.95;3.00;;;16.50;73.10;;;;;;4941967;29;20035;-84
2021/08/25 09:02:43;;;;;;;4.95;3.47;;;16.60;71.90;;;;;;4954585;28;20043;-84
2021/08/25 09:05:20;;;;;;;6.63;3.40;;;16.70;71.30;;;;;;4938728;29;20031;-85
2021/08/25 09:07:58;;;;;;;5.22;3.50;;;16.60;71.00;;;;;;4930294;28;20499;-84
2021/08/25 09:10:28;;;;;;;6.68;3.38;;;16.60;68.20;;;;;;4938193;29;20395;-84
2021/08/25 09:12:59;;;;;;;5.30;3.15;;;16.60;68.80;;;;;;4937786;29;20064;-84
2021/08/25 09:15:28;;;;;;;6.35;3.58;;;16.50;67.50;;;;;;4958584;28;20038;-85
2021/08/25 09:18:01;;;;;;;6.15;3.80;;;16.70;70.30;;;;;;4944981;28;20448;-84
2021/08/25 09:20:29;;;;;;;7.43;4.22;;;16.80;70.80;;;;;;4943891;29;20058;-84
2021/08/25 09:23:19;;;;;;;7.85;3.58;;;16.80;68.20;;;;;;4939897;28;20399;-84
2021/08/25 09:25:51;;;;;;;6.05;3.58;;;16.90;69.50;;;;;;4941140;29;20404;-85
2021/08/25 09:28:19;;;;;;;6.75;4.25;;;16.90;68.20;;;;;;4954537;28;20038;-84
2021/08/25 09:30:50;;;;;;;6.72;4.72;;;17.00;71.30;;;;;;4963651;28;20399;-84
2021/08/25 09:33:17;;;;;;;6.93;4.00;;;17.00;71.20;;;;;;4969108;28;20180;-83
2021/08/25 09:35:44;;;;;;;6.15;3.92;;;17.00;65.90;;;;;;4938634;29;20476;-85
2021/08/25 09:38:20;;;;;;;6.28;3.97;;;16.90;66.20;;;;;;4936660;29;20034;-84
2021/08/25 09:40:58;;;;;;;10.18;4.05;;;16.90;66.30;;;;;;4938508;29;20035;-85
2021/08/25 09:43:28;;;;;;;;;;;17.00;68.40;;;;;;4958650;28;20031;-83
2021/08/25 09:46:25;;;;;;;5.60;3.50;;;17.20;68.10;;;;;;4950186;29;20448;-84
2021/08/25 09:48:55;;;;;;;6.13;4.00;;;17.30;65.70;;;;;;4930354;29;20039;-84
2021/08/25 09:51:39;;;;;;;8.13;3.78;;;17.20;65.60;;;;;;4949701;28;20499;-84
2021/08/25 09:54:16;;;;;;;6.95;4.28;;;17.30;65.80;;;;;;4938530;28;20118;-83
2021/08/25 09:56:43;;;;;;;5.90;3.65;;;17.30;68.60;;;;;;4933434;29;20167;-83
2021/08/25 09:59:11;;;;;;;8.18;4.53;;;17.40;66.40;;;;;;4937048;28;20038;-83
2021/08/25 10:01:37;;;;;;;6.88;3.70;;;17.30;65.60;;;;;;4953158;28;20100;-83
2021/08/25 10:04:12;;;;;;;5.97;3.55;;;17.30;65.60;;;;;;4950562;29;20058;-84
2021/08/25 10:06:41;;;;;;;6.78;4.20;;;17.30;64.80;;;;;;4934380;28;20101;-84
2021/08/25 10:09:09;;;;;;;5.43;3.30;;;17.50;68.40;;;;;;4951646;28;20031;-84
2021/08/25 10:11:37;;;;;;;6.25;3.65;;;17.50;63.10;;;;;;4945918;29;20122;-84
2021/08/25 10:14:08;;;;;;;7.03;3.88;;;17.40;62.90;;;;;;4946168;28;20484;-85
2021/08/25 10:16:44;;;;;;;5.43;3.35;;;17.30;61.90;;;;;;4947675;28;20487;-85
2021/08/25 10:19:29;;;;;;;6.30;4.15;;;17.40;62.20;;;;;;4952551;28;20555;-85
2021/08/25 10:22:23;;;;;;;7.45;4.10;;;17.60;66.30;;;;;;4927711;29;20040;-85
2021/08/25 10:24:55;;;;;;;6.80;4.15;;;17.70;66.90;;;;;;4945340;29;20126;-84
2021/08/25 10:27:21;;;;;;;7.30;4.68;;;17.90;64.40;;;;;;4947399;29;20038;-83
2021/08/25 10:30:07;;;;;;;6.53;3.90;;;17.80;62.80;;;;;;4958276;28;20027;-84
2021/08/25 10:32:54;;;;;;;9.32;4.32;;;17.70;65.60;;;;;;4945276;28;20546;-83
2021/08/25 10:35:23;;;;;;;7.95;4.05;;;17.70;62.90;;;;;;4943740;28;20027;-84
2021/08/25 10:37:51;;;;;;;6.63;4.22;;;17.70;64.30;;;;;;4962062;28;20031;-84
2021/08/25 10:40:29;;;;;;;8.43;4.18;;;17.80;65.40;;;;;;4955360;28;20616;-85
2021/08/25 10:43:00;;;;;;;7.70;4.32;;;18.00;64.00;;;;;;4956365;28;20491;-84
2021/08/25 10:45:38;;;;;;;7.90;4.53;;;17.90;64.30;;;;;;4961217;28;20027;-83
2021/08/25 10:48:09;;;;;;;7.43;3.95;;;18.00;67.70;;;;;;4957756;28;20054;-84
2021/08/25 10:50:49;;;;;;;7.15;3.85;;;18.00;66.10;;;;;;4937434;29;20030;-84
2021/08/25 10:53:31;;;;;;;7.03;4.13;;;17.80;66.20;;;;;;4941794;28;20085;-84
2021/08/25 10:56:10;;;;;;;10.13;4.47;;;17.70;61.80;;;;;;4942115;29;20033;-83
2021/08/25 10:58:49;;;;;;;6.05;3.47;;;17.50;63.90;;;;;;4935770;28;20035;-83
2021/08/25 11:01:29;;;;;;;6.57;3.50;;;17.30;63.80;;;;;;4928798;29;20416;-83
2021/08/25 11:03:57;;;;;;;8.55;4.18;;;17.40;66.80;;;;;;4942370;28;20157;-82
2021/08/25 11:06:46;;;;;;;8.20;4.35;;;17.60;66.50;;;;;;4946421;29;20026;-83
2021/08/25 11:09:32;;;;;;;7.00;3.70;;;17.60;66.40;;;;;;4952022;28;20507;-81
2021/08/25 11:12:00;;;;;;;7.43;3.92;;;17.60;63.50;;;;;;4927737;29;20034;-82
2021/08/25 11:14:33;;;;;;;5.53;3.38;;;17.40;63.40;;;;;;4954436;28;20130;-83
2021/08/25 11:17:13;;;;;;;6.78;3.67;;;17.40;63.30;;;;;;4952138;28;20141;-83
2021/08/25 11:20:00;;;;;;;6.50;3.83;;;17.80;65.50;;;;;;4954265;28;20035;-82
2021/08/25 11:22:35;;;;;;;7.35;3.75;;;17.60;63.90;;;;;;4952314;28;20054;-83
2021/08/25 11:25:17;;;;;;;9.10;4.15;;;17.70;66.30;;;;;;4941380;29;20031;-83
2021/08/25 11:27:48;;;;;;;6.18;3.70;;;17.50;64.20;;;;;;4957564;28;20399;-83
2021/08/25 11:30:19;;;;;;;6.03;4.03;;;17.50;63.30;;;;;;4969981;28;20027;-82
2021/08/25 11:32:48;;;;;;;6.05;3.03;;;17.60;65.40;;;;;;4969388;28;20491;-84
2021/08/25 11:35:21;;;;;;;5.80;3.50;;;17.80;60.10;;;;;;4936829;28;20027;-82
2021/08/25 11:37:47;;;;;;;8.52;4.30;;;18.00;65.40;;;;;;4956163;28;20031;-83
2021/08/25 11:40:13;;;;;;;7.22;4.35;;;18.20;66.40;;;;;;4953567;28;20030;-82
2021/08/25 11:42:39;;;;;;;5.47;3.45;;;18.20;63.40;;;;;;4938388;29;20042;-82
2021/08/25 11:45:32;;;;;;;7.00;3.80;;;18.10;62.00;;;;;;4936084;28;20031;-83
2021/08/25 11:47:59;;;;;;;7.50;3.83;;;17.80;64.20;;;;;;4962555;28;20126;-83
2021/08/25 11:50:27;;;;;;;10.52;4.85;;;17.70;63.90;;;;;;4937383;29;20484;-83
2021/08/25 11:52:54;;;;;;;5.10;3.20;;;17.90;63.30;;;;;;4936068;29;20038;-82
2021/08/25 11:55:21;;;;;;;8.93;3.92;;;17.80;62.40;;;;;;4954966;29;20035;-83
2021/08/25 11:57:51;;;;;;;6.47;3.90;;;18.00;64.80;;;;;;4952841;28;20039;-83
2021/08/25 12:00:35;;;;;;;7.25;3.55;;;18.20;66.30;;;;;;4934041;28;20551;-83
2021/08/25 12:03:03;;;;;;;6.45;3.60;;;18.20;62.00;;;;;;4952653;28;20039;-83
2021/08/25 12:05:30;;;;;;;10.32;4.13;;;18.30;63.00;;;;;;4937401;28;20035;-83
2021/08/25 12:08:13;;;;;;;6.15;3.40;;;18.40;64.00;;;;;;4953287;28;20042;-83
2021/08/25 12:10:42;;;;;;;7.63;3.90;;;18.40;65.40;;;;;;4953744;28;20499;-82
2021/08/25 12:13:08;;;;;;;;;;;18.50;62.20;;;;;;4954175;28;20109;-82
2021/08/25 12:15:52;;;;;;;7.00;3.88;;;18.40;59.60;;;;;;4950293;28;19961;-83
2021/08/25 12:18:21;;;;;;;7.18;3.70;;;18.40;64.70;;;;;;4947604;29;20118;-83
2021/08/25 12:20:49;;;;;;;7.55;3.85;;;18.50;61.30;;;;;;4951619;28;20420;-83
2021/08/25 12:23:16;;;;;;;;;;;18.50;60.60;;;;;;4935676;29;20495;-82
2021/08/25 12:25:42;;;;;;;8.98;4.10;;;18.50;63.50;;;;;;4950880;28;19926;-83
2021/08/25 12:28:28;;;;;;;8.73;4.30;;;18.50;62.70;;;;;;4957547;28;20035;-83
2021/08/25 12:30:53;;;;;;;8.18;4.57;;;18.50;60.60;;;;;;4953232;28;20364;-83
2021/08/25 12:33:28;;;;;;;9.07;4.03;;;18.50;61.40;;;;;;4961336;28;20031;-84
2021/08/25 12:35:54;;;;;;;7.22;3.90;;;18.50;58.50;;;;;;4955713;28;20078;-83
2021/08/25 12:38:30;;;;;;;11.55;5.05;;;18.60;60.10;;;;;;4956684;28;20496;-82
2021/08/25 12:40:56;;;;;;;8.98;4.43;;;18.50;61.30;;;;;;4940369;29;20031;-83
2021/08/25 12:43:21;;;;;;;7.80;4.35;;;18.50;60.10;;;;;;4938030;28;20038;-83
2021/08/25 12:45:47;;;;;;;7.53;4.30;;;18.50;63.10;;;;;;4956037;29;20484;-83
2021/08/25 12:48:12;;;;;;;7.63;3.92;;;18.60;60.80;;;;;;4960962;28;20054;-83
2021/08/25 12:50:38;;;;;;;8.00;4.32;;;18.60;62.90;;;;;;4963647;28;20031;-82